Time;durP1;ratioP1;P1;durP2;ratioP2;P2;SDS_P1;SDS_P2;PMS_P1;PMS_P2;Temp;Humidity;BMP_temperature;BMP_pressure;BME280_temperature;BME280_humidity;BME280_pressure;Samples;Min_cycle;Max_cycle;Signal;HPM_P1;HPM_P2
2021/12/17 00:04:25;;;;;;;1999.90;999.90;;;8.00;99.90;;;;;;5033063;28;20064;-64
2021/12/17 00:06:50;;;;;;;1999.90;999.90;;;7.90;99.90;;;;;;5014813;28;20057;-64
2021/12/17 00:09:16;;;;;;;1999.90;999.90;;;7.90;99.90;;;;;;5032041;28;20053;-64
2021/12/17 00:11:42;;;;;;;1999.90;999.90;;;7.90;99.90;;;;;;5032805;28;20483;-63
2021/12/17 00:14:09;;;;;;;1999.90;999.90;;;8.00;99.90;;;;;;5032647;28;20472;-63
2021/12/17 00:16:39;;;;;;;1999.90;999.90;;;8.00;99.90;;;;;;5031678;28;20053;-64
2021/12/17 00:19:24;;;;;;;1999.90;999.90;;;7.90;99.90;;;;;;5032701;28;20107;-63
2021/12/17 00:44:13;;;;;;;1999.90;999.90;;;8.00;99.90;;;;;;5051771;28;20622;-63
2021/12/17 00:48:24;;;;;;;1999.90;999.90;;;8.00;99.90;;;;;;5018347;28;20136;-64
2021/12/17 00:49:37;;;;;;;1999.90;999.90;;;8.00;99.90;;;;;;5032194;28;20119;-64
2021/12/17 00:52:03;;;;;;;1999.90;999.90;;;8.00;99.90;;;;;;5046747;28;20542;-64
2021/12/17 00:54:37;;;;;;;1999.90;999.90;;;7.90;99.90;;;;;;5032306;28;20049;-64
2021/12/17 00:57:10;;;;;;;1999.90;999.90;;;8.00;99.90;;;;;;5013912;28;20064;-63
2021/12/17 00:59:37;;;;;;;1999.90;999.90;;;7.90;99.90;;;;;;5031998;28;20050;-63
2021/12/17 01:02:07;;;;;;;1999.90;999.90;;;7.90;99.90;;;;;;5047619;28;20136;-63
2021/12/17 01:04:36;;;;;;;1999.90;999.90;;;7.90;99.90;;;;;;5049390;28;20061;-63
2021/12/17 01:07:02;;;;;;;1999.90;999.90;;;7.90;99.90;;;;;;5032142;28;20083;-64
2021/12/17 01:09:28;;;;;;;1999.90;999.90;;;7.90;99.90;;;;;;5032306;28;20060;-64
2021/12/17 01:11:56;;;;;;;1999.90;999.90;;;7.90;99.90;;;;;;5046595;28;20446;-64
2021/12/17 01:14:34;;;;;;;1999.90;999.90;;;7.90;99.90;;;;;;5047475;28;20088;-63
2021/12/17 01:17:19;;;;;;;1999.90;999.90;;;7.80;99.90;;;;;;5042325;28;20155;-64
2021/12/17 01:22:51;;;;;;;1999.90;999.90;;;8.00;99.90;;;;;;5027856;28;20072;-64
2021/12/17 01:25:38;;;;;;;1999.90;999.90;;;8.00;99.90;;;;;;5010761;28;20129;-64
2021/12/17 01:42:47;;;;;;;1999.90;999.90;;;7.90;99.90;;;;;;5017464;28;20456;-64
2021/12/17 01:45:12;;;;;;;1999.90;999.90;;;7.80;99.90;;;;;;5035789;28;20473;-64
2021/12/17 01:47:38;;;;;;;1999.90;999.90;;;7.80;99.90;;;;;;5050172;28;20049;-64
2021/12/17 01:55:45;;;;;;;1999.90;999.90;;;7.70;99.90;;;;;;5017417;28;20056;-64
2021/12/17 02:00:56;;;;;;;1999.90;999.90;;;7.70;99.90;;;;;;5033215;28;20054;-64
2021/12/17 02:03:24;;;;;;;1999.90;999.90;;;7.70;99.90;;;;;;5033650;28;20403;-64
2021/12/17 02:05:50;;;;;;;1999.90;999.90;;;7.70;99.90;;;;;;5017146;28;20050;-64
2021/12/17 02:08:16;;;;;;;1999.90;999.90;;;7.70;99.90;;;;;;5034671;28;20188;-64
2021/12/17 02:22:25;;;;;;;1999.90;999.90;;;7.60;99.90;;;;;;5016354;28;20049;-64
2021/12/17 02:30:29;;;;;;;1999.90;999.90;;;7.60;99.90;;;;;;5016015;28;20064;-64
2021/12/17 02:32:57;;;;;;;1999.90;999.90;;;7.60;99.90;;;;;;5064159;28;20056;-64
2021/12/17 02:35:32;;;;;;;1999.90;999.90;;;7.60;99.90;;;;;;5033672;28;20054;-64
2021/12/17 02:37:58;;;;;;;1999.90;999.90;;;7.70;99.90;;;;;;5066990;28;20396;-64
2021/12/17 02:46:47;;;;;;;1999.90;999.90;;;7.70;99.90;;;;;;5050127;28;20119;-63
2021/12/17 02:49:13;;;;;;;1999.90;999.90;;;7.70;99.90;;;;;;5033268;28;20527;-63
2021/12/17 02:51:40;;;;;;;1999.90;999.90;;;7.70;99.90;;;;;;5015985;28;20045;-64
2021/12/17 02:54:07;;;;;;;1999.90;999.90;;;7.70;99.90;;;;;;5034573;28;20045;-64
2021/12/17 02:56:33;;;;;;;1999.90;999.90;;;7.70;99.90;;;;;;5048705;28;20064;-64
2021/12/17 02:59:02;;;;;;;1999.90;999.90;;;7.70;99.90;;;;;;5033898;28;20042;-64
2021/12/17 03:01:28;;;;;;;1999.90;999.90;;;7.70;99.90;;;;;;5034048;28;20081;-63
2021/12/17 03:03:55;;;;;;;1999.90;999.90;;;7.70;99.90;;;;;;5032800;28;20057;-64
2021/12/17 03:06:21;;;;;;;1999.90;999.90;;;7.70;99.90;;;;;;5015839;28;20084;-63
2021/12/17 03:08:47;;;;;;;1999.90;999.90;;;7.70;99.90;;;;;;5033860;28;20121;-64
2021/12/17 03:11:15;;;;;;;1999.90;999.90;;;7.70;99.90;;;;;;5032856;28;20426;-63
2021/12/17 03:13:43;;;;;;;1999.90;999.90;;;7.70;99.90;;;;;;5033961;28;20088;-63
2021/12/17 03:24:10;;;;;;;1999.90;999.90;;;7.70;99.90;;;;;;5015638;28;20092;-63
2021/12/17 03:26:37;;;;;;;1999.90;999.90;;;7.80;99.90;;;;;;5032427;28;20088;-63
2021/12/17 03:29:06;;;;;;;1999.90;999.90;;;7.80;99.90;;;;;;5049070;28;20049;-63
2021/12/17 03:31:33;;;;;;;1999.90;999.90;;;7.80;99.90;;;;;;5033209;28;20068;-63
2021/12/17 03:34:17;;;;;;;1999.90;999.90;;;7.80;99.90;;;;;;5048461;28;20065;-63
2021/12/17 03:36:45;;;;;;;1999.90;999.90;;;7.80;99.90;;;;;;5033613;28;20057;-63
2021/12/17 03:39:11;;;;;;;1999.90;999.90;;;7.90;99.90;;;;;;5047909;28;20041;-63
2021/12/17 03:41:39;;;;;;;1999.90;999.90;;;7.80;99.90;;;;;;5048402;28;20373;-63
2021/12/17 03:44:08;;;;;;;1999.90;999.90;;;7.80;99.90;;;;;;5065193;28;20080;-63
2021/12/17 03:47:04;;;;;;;1999.90;999.90;;;7.80;99.90;;;;;;5032477;28;20053;-63
2021/12/17 03:49:43;;;;;;;1999.90;999.90;;;7.70;99.90;;;;;;5051975;28;20046;-63
2021/12/17 03:52:10;;;;;;;1999.90;999.90;;;7.80;99.90;;;;;;5047631;28;20377;-63
2021/12/17 03:54:39;;;;;;;1999.90;999.90;;;7.70;99.90;;;;;;5014933;28;20037;-63
2021/12/17 03:57:10;;;;;;;1999.90;999.90;;;7.70;99.90;;;;;;5032978;28;20053;-63
2021/12/17 03:59:39;;;;;;;;;;;7.70;99.90;;;;;;5048394;28;20049;-63
2021/12/17 04:02:05;;;;;;;1999.90;999.90;;;7.70;99.90;;;;;;5064631;28;19925;-63
2021/12/17 04:04:31;;;;;;;1999.90;999.90;;;7.70;99.90;;;;;;5032855;28;20037;-63
2021/12/17 04:07:17;;;;;;;1999.90;999.90;;;7.70;99.90;;;;;;5031971;28;20045;-63
2021/12/17 04:09:59;;;;;;;1999.90;999.90;;;7.70;99.90;;;;;;5014904;28;20053;-63
2021/12/17 04:12:40;;;;;;;1999.90;999.90;;;7.70;99.90;;;;;;5014844;28;20088;-63
2021/12/17 04:15:11;;;;;;;1999.90;999.90;;;7.70;99.90;;;;;;5031538;28;20046;-63
2021/12/17 04:17:44;;;;;;;1999.90;999.90;;;7.60;99.90;;;;;;5031455;28;20072;-63
2021/12/17 04:20:10;;;;;;;1999.90;999.90;;;7.70;99.90;;;;;;5048268;28;20052;-63
2021/12/17 04:22:36;;;;;;;1999.90;999.90;;;7.60;99.90;;;;;;5032076;28;20158;-63
2021/12/17 04:25:03;;;;;;;1999.90;999.90;;;7.70;99.90;;;;;;5015372;28;20077;-63
2021/12/17 04:27:28;;;;;;;1999.90;999.90;;;7.60;99.90;;;;;;5032233;28;20056;-63
2021/12/17 04:29:57;;;;;;;1999.90;999.90;;;7.70;99.90;;;;;;5030752;28;20500;-63
2021/12/17 04:32:23;;;;;;;1999.90;999.90;;;7.60;99.90;;;;;;5048095;28;20037;-63
2021/12/17 04:34:49;;;;;;;1999.90;999.90;;;7.70;99.90;;;;;;5014011;28;20041;-63
2021/12/17 04:37:17;;;;;;;1999.90;999.90;;;7.60;99.90;;;;;;5047830;28;20373;-63
2021/12/17 04:39:51;;;;;;;;;;;7.70;99.90;;;;;;5015232;28;20049;-63
2021/12/17 04:42:27;;;;;;;1999.90;999.90;;;7.60;99.90;;;;;;5047040;28;19928;-63
2021/12/17 04:44:56;;;;;;;1999.90;999.90;;;7.60;99.90;;;;;;5031100;28;20049;-63
2021/12/17 04:58:03;;;;;;;1999.90;999.90;;;7.70;99.90;;;;;;5030663;28;20053;-63
2021/12/17 05:00:30;;;;;;;1999.90;999.90;;;7.70;99.90;;;;;;5031128;28;20034;-63
2021/12/17 05:03:05;;;;;;;1999.90;999.90;;;7.80;99.90;;;;;;5030084;28;20118;-63
2021/12/17 05:05:32;;;;;;;1999.90;999.90;;;7.80;99.90;;;;;;5018627;28;20099;-63
2021/12/17 05:08:10;;;;;;;1999.90;999.90;;;7.80;99.90;;;;;;5018572;28;20054;-63
2021/12/17 05:18:46;;;;;;;1999.90;999.90;;;7.70;99.90;;;;;;5035117;28;20049;-63
2021/12/17 05:21:14;;;;;;;1999.90;999.90;;;7.70;99.90;;;;;;5001723;28;20505;-63
2021/12/17 05:23:45;;;;;;;1999.90;999.90;;;7.80;99.90;;;;;;5051588;28;20048;-63
2021/12/17 05:26:15;;;;;;;1999.90;999.90;;;7.80;99.90;;;;;;5017388;28;20404;-63
2021/12/17 05:28:46;;;;;;;1999.90;999.90;;;7.90;99.90;;;;;;5055863;28;20121;-63
2021/12/17 05:31:14;;;;;;;1999.90;999.90;;;7.80;99.90;;;;;;5067246;28;20140;-63
2021/12/17 05:33:44;;;;;;;1999.90;999.90;;;7.80;99.90;;;;;;5034129;28;20464;-63
2021/12/17 05:36:10;;;;;;;1999.90;999.90;;;7.80;99.90;;;;;;5051106;28;20049;-63
2021/12/17 05:38:42;;;;;;;1999.90;999.90;;;7.80;99.90;;;;;;5023028;28;20045;-63
2021/12/17 05:41:08;;;;;;;1999.90;999.90;;;7.80;99.90;;;;;;5034721;28;20045;-63
2021/12/17 05:43:56;;;;;;;1999.90;999.90;;;7.80;99.90;;;;;;5027437;28;20487;-63
2021/12/17 05:46:37;;;;;;;1999.90;999.90;;;7.80;99.90;;;;;;5049957;28;20049;-63
2021/12/17 05:49:04;;;;;;;1999.90;999.90;;;7.80;99.90;;;;;;5035489;28;20068;-63
2021/12/17 05:51:31;;;;;;;1999.90;999.90;;;7.90;99.90;;;;;;5050976;28;20054;-63
2021/12/17 05:53:58;;;;;;;1999.90;999.90;;;7.80;99.90;;;;;;5034499;28;20175;-63
2021/12/17 05:56:24;;;;;;;1999.90;999.90;;;7.80;99.90;;;;;;5050909;28;20515;-63
2021/12/17 05:58:52;;;;;;;1999.90;999.90;;;7.80;99.90;;;;;;5017731;28;20038;-63
2021/12/17 06:01:18;;;;;;;1999.90;999.90;;;7.80;99.90;;;;;;5049787;28;20064;-63
2021/12/17 06:03:49;;;;;;;1999.90;999.90;;;7.80;99.90;;;;;;5017508;28;20073;-63
2021/12/17 06:06:26;;;;;;;1999.90;999.90;;;7.90;99.90;;;;;;5017371;28;20107;-63
2021/12/17 06:08:52;;;;;;;1999.90;999.90;;;7.90;99.90;;;;;;5016973;28;20064;-64
2021/12/17 06:11:18;;;;;;;1999.90;999.90;;;7.80;99.90;;;;;;5017443;28;20407;-63
2021/12/17 06:13:45;;;;;;;1999.90;999.90;;;7.90;99.90;;;;;;5016486;28;20048;-63
2021/12/17 06:16:11;;;;;;;1999.90;999.90;;;7.90;99.90;;;;;;5016023;28;20431;-63
2021/12/17 06:18:37;;;;;;;1999.90;999.90;;;7.80;99.90;;;;;;5017345;28;20403;-64
2021/12/17 06:21:03;;;;;;;1999.90;999.90;;;7.90;99.90;;;;;;5016083;28;20056;-63
2021/12/17 06:23:29;;;;;;;1999.90;999.90;;;7.80;99.90;;;;;;5017428;28;20037;-63
2021/12/17 06:25:55;;;;;;;1999.90;999.90;;;7.80;99.90;;;;;;5000508;28;20500;-63
2021/12/17 06:28:21;;;;;;;1999.90;999.90;;;7.80;99.90;;;;;;5016242;28;20187;-63
2021/12/17 06:30:51;;;;;;;1999.90;999.90;;;7.80;99.90;;;;;;5016926;28;20059;-63
2021/12/17 06:33:24;;;;;;;1999.90;999.90;;;7.80;99.90;;;;;;5017242;28;20037;-63
2021/12/17 06:35:51;;;;;;;1999.90;999.90;;;7.80;99.90;;;;;;5016395;28;20467;-63
2021/12/17 06:38:17;;;;;;;1999.90;999.90;;;7.80;99.90;;;;;;5033484;28;20057;-63
2021/12/17 06:40:43;;;;;;;1999.90;999.90;;;7.70;99.90;;;;;;5016619;28;20041;-63
2021/12/17 06:43:09;;;;;;;1999.90;999.90;;;7.70;99.90;;;;;;5033790;28;20083;-63
2021/12/17 06:45:53;;;;;;;1999.90;999.90;;;7.70;99.90;;;;;;5049919;28;20136;-63
2021/12/17 06:48:24;;;;;;;1999.90;999.90;;;7.70;99.90;;;;;;5049560;28;20048;-63
2021/12/17 06:57:52;;;;;;;1999.90;999.90;;;7.70;99.90;;;;;;5032820;28;20069;-63
2021/12/17 07:06:27;;;;;;;1999.90;999.90;;;7.70;99.90;;;;;;5033820;28;20045;-63
2021/12/17 07:17:42;;;;;;;1999.90;999.90;;;7.70;99.90;;;;;;5017966;28;20045;-63
2021/12/17 07:28:13;;;;;;;1999.90;999.90;;;7.60;99.90;;;;;;5019892;28;20050;-63
2021/12/17 07:32:08;;;;;;;1999.90;999.90;;;7.70;99.90;;;;;;5053791;28;20053;-63
2021/12/17 07:33:44;;;;;;;1999.90;999.90;;;7.70;99.90;;;;;;5033934;28;20095;-64
2021/12/17 07:36:39;;;;;;;1999.90;999.90;;;7.70;99.90;;;;;;5060367;28;20056;-63
2021/12/17 07:39:05;;;;;;;1999.90;999.90;;;7.70;99.90;;;;;;5050838;28;20041;-64
2021/12/17 07:41:49;;;;;;;1999.90;999.90;;;7.70;99.90;;;;;;5045899;28;20057;-63
2021/12/17 07:44:33;;;;;;;1999.90;999.90;;;7.70;99.90;;;;;;5024882;28;20118;-63
2021/12/17 07:47:21;;;;;;;1999.90;999.90;;;7.70;99.90;;;;;;5016023;28;20530;-63
2021/12/17 07:50:06;;;;;;;1999.90;999.90;;;7.70;99.90;;;;;;5033514;28;20058;-63
2021/12/17 07:52:33;;;;;;;1999.90;999.90;;;7.70;99.90;;;;;;5031472;28;20069;-63
2021/12/17 07:54:59;;;;;;;1999.90;999.90;;;7.60;99.90;;;;;;5033414;28;20092;-63
2021/12/17 07:57:25;;;;;;;1999.90;999.90;;;7.70;99.90;;;;;;4999184;28;20044;-63
2021/12/17 07:59:51;;;;;;;1999.90;999.90;;;7.60;99.90;;;;;;5031849;28;20089;-63
2021/12/17 08:02:17;;;;;;;1999.90;999.90;;;7.70;99.90;;;;;;5048281;28;20088;-63
2021/12/17 08:04:50;;;;;;;1999.90;999.90;;;7.70;99.90;;;;;;5015139;28;20529;-63
2021/12/17 08:07:20;;;;;;;1999.90;999.90;;;7.70;99.90;;;;;;5013961;28;20076;-63
2021/12/17 08:09:46;;;;;;;1999.90;999.90;;;7.60;99.90;;;;;;5031901;28;20080;-63
2021/12/17 08:12:12;;;;;;;1999.90;999.90;;;7.70;99.90;;;;;;5034864;28;20396;-63
2021/12/17 08:14:45;;;;;;;1999.90;999.90;;;7.70;99.90;;;;;;5034128;28;20044;-63
2021/12/17 08:25:26;;;;;;;1999.90;999.90;;;7.70;99.90;;;;;;5037210;28;20639;-63
2021/12/17 08:28:05;;;;;;;1999.90;999.90;;;7.80;99.90;;;;;;5056245;28;20044;-63
2021/12/17 08:30:40;;;;;;;1999.90;999.90;;;7.70;99.90;;;;;;5015022;28;20047;-63
2021/12/17 08:33:19;;;;;;;1999.90;999.90;;;7.80;99.90;;;;;;5000876;28;20517;-63
2021/12/17 08:35:45;;;;;;;1999.90;999.90;;;7.80;99.90;;;;;;5037737;28;20053;-63
2021/12/17 08:38:19;;;;;;;1999.90;999.90;;;7.80;99.90;;;;;;5064056;28;20047;-64
2021/12/17 08:40:45;;;;;;;1999.90;999.90;;;7.80;99.90;;;;;;5041351;28;20124;-63
2021/12/17 08:43:12;;;;;;;1999.90;999.90;;;7.80;99.90;;;;;;5033851;28;20089;-63
2021/12/17 08:45:44;;;;;;;1999.90;999.90;;;7.80;99.90;;;;;;5032792;28;20055;-64
2021/12/17 08:48:31;;;;;;;1999.90;999.90;;;7.80;99.90;;;;;;5045308;28;20052;-64
2021/12/17 08:51:17;;;;;;;1999.90;999.90;;;7.80;99.90;;;;;;5063004;28;20509;-63
2021/12/17 08:53:43;;;;;;;1999.90;999.90;;;7.80;99.90;;;;;;5046547;28;20167;-63
2021/12/17 08:56:09;;;;;;;1999.90;999.90;;;7.80;99.90;;;;;;5062250;28;20052;-63
2021/12/17 08:58:35;;;;;;;1999.90;999.90;;;7.90;99.90;;;;;;5057739;28;20048;-64
2021/12/17 09:01:04;;;;;;;1999.90;999.90;;;7.90;99.90;;;;;;5032835;28;20056;-63
2021/12/17 09:03:32;;;;;;;1999.90;999.90;;;7.90;99.90;;;;;;5053672;28;20595;-63
2021/12/17 09:06:08;;;;;;;1999.90;999.90;;;7.90;99.90;;;;;;5037719;28;20049;-63
2021/12/17 09:08:41;;;;;;;1999.90;999.90;;;7.90;99.90;;;;;;5037681;28;20047;-63
2021/12/17 09:11:09;;;;;;;1999.90;999.90;;;8.00;99.90;;;;;;5036887;28;20395;-63
2021/12/17 09:13:47;;;;;;;1999.90;999.90;;;8.00;99.90;;;;;;5037303;28;20136;-63
2021/12/17 09:16:13;;;;;;;1999.90;999.90;;;8.00;99.90;;;;;;5020274;28;20415;-64
2021/12/17 09:18:40;;;;;;;1999.90;999.90;;;8.10;99.90;;;;;;5038443;28;20047;-63
2021/12/17 09:21:27;;;;;;;1999.90;999.90;;;8.10;99.90;;;;;;5038539;28;20060;-64
2021/12/17 09:24:06;;;;;;;1999.90;999.90;;;8.10;99.90;;;;;;5027844;28;20134;-64
2021/12/17 09:26:53;;;;;;;1999.90;999.90;;;8.10;99.90;;;;;;5048275;28;20099;-64
2021/12/17 09:29:22;;;;;;;1999.90;999.90;;;8.20;99.90;;;;;;5037803;28;20128;-64
2021/12/17 09:31:48;;;;;;;1999.90;999.90;;;8.20;99.90;;;;;;5038248;28;20124;-63
2021/12/17 09:34:14;;;;;;;1999.90;999.90;;;8.20;99.90;;;;;;5038694;28;20111;-64
2021/12/17 09:36:40;;;;;;;1999.90;999.90;;;8.20;99.90;;;;;;5038157;28;20045;-64
2021/12/17 09:39:06;;;;;;;1999.90;999.90;;;8.30;99.90;;;;;;5038125;28;20491;-64
2021/12/17 09:41:32;;;;;;;1999.90;999.90;;;8.20;99.90;;;;;;5038914;28;20069;-64
2021/12/17 09:43:58;;;;;;;1999.90;999.90;;;8.30;99.90;;;;;;5038186;28;20065;-64
2021/12/17 09:46:24;;;;;;;1999.90;999.90;;;8.30;99.90;;;;;;5037668;28;20491;-64
2021/12/17 09:48:50;;;;;;;1999.90;999.90;;;8.30;99.90;;;;;;5038436;28;20095;-64
2021/12/17 09:51:18;;;;;;;1999.90;999.90;;;8.30;99.90;;;;;;5035112;28;20084;-64
2021/12/17 09:53:45;;;;;;;1999.90;999.90;;;8.40;99.90;;;;;;5034462;28;20064;-64
2021/12/17 09:56:11;;;;;;;1999.90;999.90;;;8.40;99.90;;;;;;5050677;28;20053;-64
2021/12/17 09:58:37;;;;;;;1999.90;999.90;;;8.50;99.90;;;;;;5034191;28;20042;-64
2021/12/17 10:01:03;;;;;;;1999.90;999.90;;;8.50;99.90;;;;;;5035306;28;20053;-64
2021/12/17 10:03:29;;;;;;;1999.90;999.90;;;8.60;99.90;;;;;;5039799;28;20094;-64
2021/12/17 10:05:56;;;;;;;1999.90;999.90;;;8.60;99.90;;;;;;5036451;28;20037;-64
2021/12/17 10:08:24;;;;;;;1999.90;999.90;;;8.70;99.90;;;;;;5040652;28;20403;-64
2021/12/17 10:10:58;;;;;;;1999.90;999.90;;;8.70;99.90;;;;;;5041093;28;20037;-64
2021/12/17 10:13:31;;;;;;;1999.90;999.90;;;8.70;99.90;;;;;;5036688;28;20054;-64
2021/12/17 10:16:05;;;;;;;1999.90;999.90;;;8.70;99.90;;;;;;5034854;28;20041;-64
2021/12/17 10:18:41;;;;;;;1999.90;999.90;;;8.80;99.90;;;;;;5035254;28;20042;-64
2021/12/17 10:21:11;;;;;;;1999.90;999.90;;;8.80;99.90;;;;;;5031021;28;20064;-64
2021/12/17 10:23:41;;;;;;;1999.90;999.90;;;8.80;99.90;;;;;;5014923;28;20077;-64
2021/12/17 10:26:12;;;;;;;1999.90;999.90;;;8.90;99.90;;;;;;5015298;28;20147;-64
2021/12/17 10:28:50;;;;;;;1999.90;999.90;;;8.80;99.90;;;;;;5014325;28;20132;-64
2021/12/17 10:31:17;;;;;;;1999.90;999.90;;;8.90;99.90;;;;;;5049857;28;20503;-64
2021/12/17 10:33:49;;;;;;;1999.90;999.90;;;9.00;99.90;;;;;;5034074;28;20045;-64
2021/12/17 10:36:15;;;;;;;1999.90;999.90;;;9.10;99.90;;;;;;5034491;28;20053;-64
2021/12/17 10:38:45;;;;;;;1999.90;999.90;;;9.20;99.90;;;;;;5034450;28;20148;-64
2021/12/17 10:41:14;;;;;;;1999.90;999.90;;;9.20;99.90;;;;;;5033859;28;20045;-64
2021/12/17 10:43:48;;;;;;;1999.90;999.90;;;9.20;99.90;;;;;;5034356;28;20099;-64
2021/12/17 10:46:26;;;;;;;1999.90;999.90;;;9.20;99.90;;;;;;5049722;28;20054;-64
2021/12/17 10:49:00;;;;;;;1999.90;999.90;;;9.10;99.90;;;;;;5033597;28;20049;-64
2021/12/17 10:53:57;;;;;;;1999.90;999.90;;;9.20;99.90;;;;;;5034512;28;20044;-64
2021/12/17 10:56:26;;;;;;;1999.90;999.90;;;9.20;99.90;;;;;;5033167;28;20095;-65
2021/12/17 10:58:55;;;;;;;1999.90;999.90;;;9.20;99.90;;;;;;5033951;28;20045;-64
2021/12/17 11:01:31;;;;;;;1999.90;999.90;;;9.20;99.90;;;;;;5033457;28;20506;-64
2021/12/17 11:04:21;;;;;;;1999.90;999.90;;;9.20;99.90;;;;;;5033521;28;20077;-64
2021/12/17 11:06:59;;;;;;;1999.90;999.90;;;9.20;99.90;;;;;;5013877;28;20060;-64
2021/12/17 11:09:49;;;;;;;1999.90;999.90;;;9.30;99.90;;;;;;5013553;28;20054;-64
2021/12/17 11:12:25;;;;;;;1999.90;999.90;;;9.30;99.90;;;;;;5013796;28;20397;-64
2021/12/17 11:14:52;;;;;;;1999.90;999.90;;;9.30;99.90;;;;;;5030621;28;20249;-64
2021/12/17 11:17:21;;;;;;;1999.90;999.90;;;9.30;99.90;;;;;;5015301;28;20048;-64
2021/12/17 11:19:53;;;;;;;1999.90;999.90;;;9.30;99.90;;;;;;5015602;28;20179;-64
2021/12/17 11:22:20;;;;;;;1999.90;999.90;;;9.30;99.90;;;;;;5033576;28;20111;-64
2021/12/17 11:24:47;;;;;;;1999.90;999.90;;;9.30;99.90;;;;;;5033079;28;20291;-64
2021/12/17 11:27:12;;;;;;;1999.90;999.90;;;9.30;99.90;;;;;;5033515;28;20045;-64
2021/12/17 11:29:40;;;;;;;1999.90;999.90;;;9.40;99.90;;;;;;5048843;28;20053;-64
2021/12/17 11:32:06;;;;;;;1999.90;999.90;;;9.30;99.90;;;;;;5032401;28;20133;-64
2021/12/17 11:34:33;;;;;;;1999.90;999.90;;;9.30;99.90;;;;;;5033303;28;20038;-64
2021/12/17 11:37:03;;;;;;;1999.90;999.90;;;9.30;99.90;;;;;;5032974;28;20052;-64
2021/12/17 11:39:31;;;;;;;1999.90;999.90;;;9.20;99.90;;;;;;5033188;28;20042;-65
2021/12/17 11:41:59;;;;;;;1999.90;999.90;;;9.20;99.90;;;;;;5033429;28;20043;-65
2021/12/17 11:44:38;;;;;;;1999.90;999.90;;;9.20;99.90;;;;;;5032835;28;20041;-65
2021/12/17 11:47:06;;;;;;;1999.90;999.90;;;9.20;99.90;;;;;;5033521;28;20045;-65
2021/12/17 11:49:39;;;;;;;1999.90;999.90;;;9.20;99.90;;;;;;5014885;28;20064;-65
2021/12/17 11:52:05;;;;;;;1999.90;999.90;;;9.20;99.90;;;;;;5041668;28;20442;-65
2021/12/17 11:54:33;;;;;;;1999.90;999.90;;;9.20;99.90;;;;;;5057689;28;20052;-65
2021/12/17 11:57:08;;;;;;;1999.90;999.90;;;9.20;99.90;;;;;;5043540;28;20049;-65
2021/12/17 11:59:37;;;;;;;1999.90;999.90;;;9.20;99.90;;;;;;5057324;28;20425;-65
2021/12/17 12:02:11;;;;;;;1999.90;999.90;;;9.20;99.90;;;;;;5035462;28;20053;-65
2021/12/17 12:04:42;;;;;;;1999.90;999.90;;;9.20;99.90;;;;;;5032732;28;20180;-65
2021/12/17 12:07:10;;;;;;;1999.90;999.90;;;9.20;99.90;;;;;;5014488;28;20076;-65
2021/12/17 12:12:23;;;;;;;1999.90;999.90;;;9.20;99.90;;;;;;5039656;28;20049;-65
2021/12/17 12:14:49;;;;;;;1999.90;999.90;;;9.20;99.90;;;;;;5032460;28;20049;-65
2021/12/17 12:17:53;;;;;;;1999.90;999.90;;;9.20;99.90;;;;;;5032977;28;20033;-65
2021/12/17 12:20:39;;;;;;;1999.90;999.90;;;9.20;99.90;;;;;;5031493;28;20123;-65
2021/12/17 12:23:37;;;;;;;1999.90;999.90;;;9.20;99.90;;;;;;5032862;28;20053;-65
2021/12/17 12:26:11;;;;;;;1999.90;999.90;;;9.20;99.90;;;;;;5032590;28;20476;-65
2021/12/17 12:28:46;;;;;;;1999.90;999.90;;;9.20;99.90;;;;;;5032678;28;20115;-65
2021/12/17 12:31:18;;;;;;;1999.90;999.90;;;9.20;99.90;;;;;;5032821;28;20061;-65
2021/12/17 12:34:06;;;;;;;1999.90;999.90;;;9.20;99.90;;;;;;5031297;28;20053;-65
2021/12/17 12:36:50;;;;;;;1999.90;999.90;;;9.30;99.90;;;;;;5032919;28;20045;-64
2021/12/17 12:39:25;;;;;;;1999.90;999.90;;;9.20;99.90;;;;;;5031302;28;20084;-64
2021/12/17 12:41:55;;;;;;;1999.90;999.90;;;9.20;99.90;;;;;;5031307;28;20053;-65
2021/12/17 12:44:42;;;;;;;1999.90;999.90;;;9.20;99.90;;;;;;5032576;28;20062;-65
2021/12/17 12:47:15;;;;;;;1999.90;999.90;;;9.20;99.90;;;;;;5037506;28;20052;-65
2021/12/17 12:49:48;;;;;;;1999.90;999.90;;;9.20;99.90;;;;;;5039700;28;20057;-65
2021/12/17 12:52:24;;;;;;;1999.90;999.90;;;9.20;99.90;;;;;;5032262;28;20049;-65
2021/12/17 12:54:53;;;;;;;1999.90;999.90;;;9.20;99.90;;;;;;5031684;28;20484;-65
2021/12/17 12:57:24;;;;;;;1999.90;999.90;;;9.20;99.90;;;;;;5032372;28;20055;-65
2021/12/17 12:59:52;;;;;;;1999.90;999.90;;;9.20;99.90;;;;;;5032267;28;20510;-65
2021/12/17 13:02:18;;;;;;;1999.90;999.90;;;9.20;99.90;;;;;;5031482;28;20054;-65
2021/12/17 13:04:45;;;;;;;1999.90;999.90;;;9.20;99.90;;;;;;5032032;28;20045;-64
2021/12/17 13:07:14;;;;;;;1999.90;999.90;;;9.20;99.90;;;;;;5032316;28;20488;-65
2021/12/17 13:09:42;;;;;;;1999.90;999.90;;;9.20;99.90;;;;;;5031396;28;20046;-65
2021/12/17 13:12:09;;;;;;;1999.90;999.90;;;9.20;99.90;;;;;;5031817;28;20499;-65
2021/12/17 13:14:43;;;;;;;1999.90;999.90;;;9.20;99.90;;;;;;5037482;28;20100;-65
2021/12/17 13:17:40;;;;;;;1999.90;999.90;;;9.20;99.90;;;;;;5037766;28;20207;-65
2021/12/17 13:20:31;;;;;;;1999.90;999.90;;;9.20;99.90;;;;;;5041119;28;20483;-65
2021/12/17 13:23:01;;;;;;;1999.90;999.90;;;9.20;99.90;;;;;;5050346;28;20114;-64
2021/12/17 13:25:31;;;;;;;1999.90;999.90;;;9.20;99.90;;;;;;5054401;28;20057;-65
2021/12/17 13:27:57;;;;;;;1999.90;999.90;;;9.20;99.90;;;;;;5035998;28;20056;-64
2021/12/17 13:30:24;;;;;;;1999.90;999.90;;;9.20;99.90;;;;;;5035198;28;20042;-64
2021/12/17 13:32:52;;;;;;;1999.90;999.90;;;9.30;99.90;;;;;;5035708;28;20049;-64
2021/12/17 13:35:18;;;;;;;1999.90;999.90;;;9.30;99.90;;;;;;5035682;28;20057;-64
2021/12/17 13:37:43;;;;;;;1999.90;999.90;;;9.30;99.90;;;;;;5035320;28;20120;-64
2021/12/17 13:40:12;;;;;;;1999.90;999.90;;;9.30;99.90;;;;;;5035592;28;20129;-64
2021/12/17 13:42:43;;;;;;;1999.90;999.90;;;9.20;99.90;;;;;;5035528;28;20045;-64
2021/12/17 13:45:16;;;;;;;1999.90;999.90;;;9.30;99.90;;;;;;5034979;28;20128;-64
2021/12/17 13:47:45;;;;;;;1999.90;999.90;;;9.30;99.90;;;;;;5035303;28;20479;-64
2021/12/17 13:50:19;;;;;;;1999.90;999.90;;;9.30;99.90;;;;;;5035278;28;20053;-64
2021/12/17 13:52:49;;;;;;;1999.90;999.90;;;9.30;99.90;;;;;;5034448;28;20046;-64
2021/12/17 13:55:18;;;;;;;1999.90;999.90;;;9.30;99.90;;;;;;5035076;28;20582;-64
2021/12/17 13:57:45;;;;;;;1999.90;999.90;;;9.30;99.90;;;;;;5034953;28;20490;-64
2021/12/17 14:00:20;;;;;;;1999.90;999.90;;;9.30;99.90;;;;;;5017322;28;20057;-65
2021/12/17 14:02:47;;;;;;;1999.90;999.90;;;9.30;99.90;;;;;;5009738;28;20084;-65
2021/12/17 14:05:26;;;;;;;1999.90;999.90;;;9.30;99.90;;;;;;4995298;28;20521;-64
2021/12/17 14:07:56;;;;;;;1999.90;999.90;;;9.30;99.90;;;;;;5001371;28;20129;-65
2021/12/17 14:10:27;;;;;;;1999.90;999.90;;;9.20;99.90;;;;;;5011491;28;20085;-64
2021/12/17 14:12:53;;;;;;;1999.90;999.90;;;9.30;99.90;;;;;;5014722;28;20067;-65
2021/12/17 14:15:27;;;;;;;1999.90;999.90;;;9.20;99.90;;;;;;5015497;28;20484;-65
2021/12/17 14:18:05;;;;;;;1999.90;999.90;;;9.20;99.90;;;;;;4995193;28;20042;-65
2021/12/17 14:20:39;;;;;;;1999.90;999.90;;;9.10;99.90;;;;;;5010064;28;20052;-64
2021/12/17 14:23:08;;;;;;;1999.90;999.90;;;9.10;99.90;;;;;;5014979;28;20544;-65
2021/12/17 14:25:39;;;;;;;1999.90;999.90;;;9.10;99.90;;;;;;5015110;28;20042;-65
2021/12/17 14:28:10;;;;;;;1999.90;999.90;;;9.10;99.90;;;;;;5010747;28;20054;-65
2021/12/17 14:30:36;;;;;;;1999.90;999.90;;;9.10;99.90;;;;;;5005651;28;20042;-65
2021/12/17 14:33:11;;;;;;;1999.90;999.90;;;9.10;99.90;;;;;;5003341;28;20089;-64
2021/12/17 14:35:45;;;;;;;1999.90;999.90;;;9.10;99.90;;;;;;4997318;28;20086;-64
2021/12/17 14:38:13;;;;;;;1999.90;999.90;;;9.10;99.90;;;;;;5010414;28;20067;-64
2021/12/17 14:40:49;;;;;;;1999.90;999.90;;;9.10;99.90;;;;;;5013922;28;20041;-65
2021/12/17 14:43:23;;;;;;;1999.90;999.90;;;9.10;99.90;;;;;;5014899;28;20049;-64
2021/12/17 14:45:58;;;;;;;1999.90;999.90;;;9.10;99.90;;;;;;5014109;28;20045;-65
2021/12/17 14:48:36;;;;;;;1999.90;999.90;;;9.10;99.90;;;;;;5008304;28;20370;-64
2021/12/17 15:02:14;;;;;;;1999.90;999.90;;;9.00;99.90;;;;;;5008969;28;20061;-65
2021/12/17 15:04:40;;;;;;;1999.90;999.90;;;9.00;99.90;;;;;;5033148;28;20073;-65